createdAt,value
2023-03-05T00:00:40.952Z,32.53
2023-03-05T00:03:07.604Z,33.11
2023-03-05T00:05:34.278Z,32.95
2023-03-05T00:08:01.011Z,33.86
2023-03-05T00:10:27.662Z,35.11
2023-03-05T00:12:54.312Z,34.08
2023-03-05T00:15:20.975Z,33.15
2023-03-05T00:17:47.670Z,33.35
2023-03-05T00:20:14.445Z,33.63
2023-03-05T00:22:41.124Z,33.37
2023-03-05T00:25:08.117Z,32.99
2023-03-05T00:27:34.760Z,32.34
2023-03-05T00:30:01.655Z,32.35
2023-03-05T00:32:28.377Z,32.54
2023-03-05T00:34:55.108Z,30.73
2023-03-05T00:37:21.774Z,30.62
2023-03-05T00:39:48.439Z,32.47
2023-03-05T00:42:15.100Z,30.75
2023-03-05T00:44:41.749Z,31.59
2023-03-05T00:47:08.411Z,31.26
2023-03-05T00:49:35.243Z,30.80
2023-03-05T00:52:01.933Z,31.39
2023-03-05T00:54:37.302Z,30.83
2023-03-05T00:57:07.145Z,30.00
2023-03-05T00:59:33.873Z,30.56
2023-03-05T01:02:00.589Z,30.52
2023-03-05T01:04:27.271Z,29.82
2023-03-05T01:06:53.916Z,31.25
2023-03-05T01:09:20.612Z,30.62
2023-03-05T01:11:47.398Z,30.42
2023-03-05T01:14:14.228Z,30.84
2023-03-05T01:16:40.901Z,31.71
2023-03-05T01:19:07.575Z,30.04
2023-03-05T01:21:35.275Z,31.07
2023-03-05T01:24:02.109Z,30.25
2023-03-05T01:26:28.798Z,30.32
2023-03-05T01:28:55.435Z,30.37
2023-03-05T01:31:22.121Z,30.56
2023-03-05T01:33:48.797Z,30.58
2023-03-05T01:36:15.546Z,30.65
2023-03-05T01:38:43.371Z,30.91
2023-03-05T01:41:10.120Z,30.95
2023-03-05T01:43:36.801Z,30.84
2023-03-05T01:46:22.652Z,30.79
2023-03-05T01:49:01.387Z,30.67
2023-03-05T01:51:29.687Z,30.64
2023-03-05T01:53:56.350Z,31.95
2023-03-05T01:56:23.024Z,31.41
2023-03-05T01:58:49.839Z,30.98
2023-03-05T02:01:16.615Z,31.41
2023-03-05T02:03:43.415Z,31.27
2023-03-05T02:06:10.108Z,31.67
2023-03-05T02:08:36.750Z,31.30
2023-03-05T02:11:03.419Z,32.03
2023-03-05T02:13:32.786Z,32.71
2023-03-05T02:15:59.982Z,32.92
2023-03-05T02:18:26.640Z,32.20
2023-03-05T02:21:01.549Z,31.65
2023-03-05T02:23:30.346Z,32.22
2023-03-05T02:25:57.026Z,32.29
2023-03-05T02:28:30.820Z,32.71
2023-03-05T02:30:57.493Z,32.68
2023-03-05T02:33:24.145Z,32.34
2023-03-05T02:35:50.814Z,31.00
2023-03-05T02:38:18.390Z,32.00
2023-03-05T02:40:45.064Z,30.89
2023-03-05T02:43:11.729Z,32.37
2023-03-05T02:45:38.605Z,31.51
2023-03-05T02:48:05.382Z,30.82
2023-03-05T02:50:32.066Z,29.61
2023-03-05T02:52:58.726Z,30.03
2023-03-05T02:55:25.527Z,29.72
2023-03-05T02:57:52.178Z,30.02
2023-03-05T03:00:18.958Z,30.09
2023-03-05T03:02:45.666Z,29.40
2023-03-05T03:05:12.324Z,29.97
2023-03-05T03:07:39.000Z,30.03
2023-03-05T03:10:06.303Z,30.55
2023-03-05T03:12:37.496Z,30.87
2023-03-05T03:15:04.384Z,30.13
2023-03-05T03:17:31.025Z,29.88
2023-03-05T03:19:57.680Z,30.48
2023-03-05T03:22:24.327Z,30.51
2023-03-05T03:24:50.972Z,30.69
2023-03-05T03:27:17.655Z,30.39
2023-03-05T03:29:44.304Z,31.76
2023-03-05T03:32:11.019Z,32.02
2023-03-05T03:34:37.726Z,31.05
2023-03-05T03:37:04.404Z,31.63
2023-03-05T03:39:31.077Z,31.67
2023-03-05T03:41:57.801Z,32.18
2023-03-05T03:44:24.440Z,32.63
2023-03-05T03:46:51.208Z,32.63
2023-03-05T03:49:22.657Z,32.01
2023-03-05T03:51:49.328Z,31.99
2023-03-05T03:54:16.171Z,32.94
2023-03-05T03:56:42.848Z,31.57
2023-03-05T03:59:09.578Z,33.29
2023-03-05T04:01:36.255Z,32.40
2023-03-05T04:04:03.438Z,33.13
2023-03-05T04:06:30.161Z,33.19
2023-03-05T04:08:56.866Z,32.69
2023-03-05T04:11:23.567Z,33.67
2023-03-05T04:13:50.405Z,33.10
2023-03-05T04:16:17.159Z,32.73
2023-03-05T04:18:43.910Z,31.85
2023-03-05T04:21:10.595Z,32.47
2023-03-05T04:23:37.277Z,32.51
2023-03-05T04:26:04.102Z,31.78
2023-03-05T04:28:30.921Z,32.83
2023-03-05T04:30:57.642Z,31.68
2023-03-05T04:33:24.313Z,32.75
2023-03-05T04:35:51.037Z,31.99
2023-03-05T04:38:17.715Z,33.48
2023-03-05T04:40:45.146Z,32.43
2023-03-05T04:43:11.888Z,32.58
2023-03-05T04:45:42.471Z,32.10
2023-03-05T04:48:09.380Z,31.94
2023-03-05T04:50:36.083Z,32.68
2023-03-05T04:53:03.042Z,31.98
2023-03-05T04:55:29.689Z,31.56
2023-03-05T04:57:56.391Z,32.39
2023-03-05T05:00:23.014Z,32.20
2023-03-05T05:02:50.134Z,31.34
2023-03-05T05:05:24.764Z,32.16
2023-03-05T05:07:55.782Z,32.05
2023-03-05T05:10:22.490Z,32.23
2023-03-05T05:12:50.472Z,31.25
2023-03-05T05:15:17.183Z,31.49
2023-03-05T05:17:43.900Z,31.58
2023-03-05T05:20:11.792Z,32.25
2023-03-05T05:22:38.487Z,32.50
2023-03-05T05:25:05.444Z,31.75
2023-03-05T05:27:32.139Z,32.65
2023-03-05T05:29:58.937Z,33.23
2023-03-05T05:32:25.769Z,33.37
2023-03-05T05:34:56.237Z,32.88
2023-03-05T05:37:22.962Z,33.39
2023-03-05T05:39:49.658Z,32.78
2023-03-05T05:42:17.695Z,34.43
2023-03-05T05:44:44.361Z,35.31
2023-03-05T05:47:11.093Z,34.07
2023-03-05T05:49:37.792Z,34.83
2023-03-05T05:52:04.715Z,35.02
2023-03-05T05:54:31.406Z,34.69
2023-03-05T05:56:58.098Z,34.75
2023-03-05T05:59:24.886Z,35.34
2023-03-05T06:01:51.679Z,34.28
2023-03-05T06:04:18.406Z,33.57
2023-03-05T06:06:45.088Z,34.67
2023-03-05T06:09:11.891Z,35.33
2023-03-05T06:11:38.544Z,35.56
2023-03-05T06:14:05.292Z,35.96
2023-03-05T06:16:32.025Z,35.48
2023-03-05T06:18:58.717Z,35.09
2023-03-05T06:21:25.531Z,34.94
2023-03-05T06:23:52.247Z,35.10
2023-03-05T06:26:21.306Z,34.88
2023-03-05T06:28:47.983Z,36.05
2023-03-05T06:31:22.050Z,35.37
2023-03-05T06:33:49.358Z,35.64
2023-03-05T06:36:17.097Z,37.63
2023-03-05T06:38:43.790Z,38.24
2023-03-05T06:41:15.137Z,38.68
2023-03-05T06:43:43.234Z,37.91
2023-03-05T06:46:14.890Z,37.75
2023-03-05T06:48:41.888Z,38.57
2023-03-05T06:51:18.351Z,39.44
2023-03-05T06:53:45.046Z,40.56
2023-03-05T06:56:11.730Z,40.95
2023-03-05T06:58:38.407Z,39.75
2023-03-05T07:01:06.324Z,38.73
2023-03-05T07:03:34.103Z,38.60
2023-03-05T07:06:03.767Z,38.72
2023-03-05T07:08:30.450Z,38.65
2023-03-05T07:10:57.122Z,37.09
2023-03-05T07:13:24.775Z,37.26
2023-03-05T07:15:51.555Z,36.42
2023-03-05T07:18:18.243Z,36.97
2023-03-05T07:20:44.891Z,38.02
2023-03-05T07:23:11.561Z,36.75
2023-03-05T07:25:38.524Z,37.36
2023-03-05T07:28:05.812Z,37.99
2023-03-05T07:30:33.286Z,37.33
2023-03-05T07:32:59.915Z,39.18
2023-03-05T07:35:26.751Z,38.78
2023-03-05T07:37:53.562Z,39.73
2023-03-05T07:40:20.449Z,39.48
2023-03-05T07:42:47.098Z,40.19
2023-03-05T07:45:13.779Z,40.87
2023-03-05T07:47:40.489Z,40.25
2023-03-05T07:50:07.471Z,40.75
2023-03-05T07:52:34.150Z,42.19
2023-03-05T07:55:00.807Z,41.44
2023-03-05T07:57:27.484Z,40.94
2023-03-05T07:59:54.131Z,42.31
2023-03-05T08:02:20.845Z,43.52
2023-03-05T08:04:47.555Z,42.87
2023-03-05T08:07:17.518Z,44.26
2023-03-05T08:09:44.202Z,44.33
2023-03-05T08:12:10.870Z,43.77
2023-03-05T08:14:37.746Z,43.71
2023-03-05T08:17:05.068Z,45.22
2023-03-05T08:19:32.583Z,45.33
2023-03-05T08:21:59.270Z,45.14
2023-03-05T08:24:25.933Z,43.86
2023-03-05T08:26:52.584Z,46.67
2023-03-05T08:29:19.332Z,44.92
2023-03-05T08:31:46.161Z,45.32
2023-03-05T08:34:12.968Z,45.08
2023-03-05T08:36:39.649Z,44.51
2023-03-05T08:39:06.517Z,44.57
2023-03-05T08:41:33.176Z,43.48
2023-03-05T08:43:59.871Z,43.85
2023-03-05T08:46:26.540Z,43.50
2023-03-05T08:48:53.258Z,42.07
2023-03-05T08:51:21.520Z,42.17
2023-03-05T08:53:48.219Z,41.70
2023-03-05T08:56:14.986Z,41.84
2023-03-05T08:58:41.666Z,40.88
2023-03-05T09:01:08.320Z,40.22
2023-03-05T09:03:34.979Z,39.79
2023-03-05T09:06:02.366Z,40.02
2023-03-05T09:08:29.206Z,40.22
2023-03-05T09:10:56.035Z,39.24
2023-03-05T09:13:22.711Z,40.41
2023-03-05T09:16:00.034Z,40.22
2023-03-05T09:18:26.778Z,39.25
2023-03-05T09:20:53.763Z,40.51
2023-03-05T09:23:20.501Z,40.69
2023-03-05T09:25:47.175Z,40.21
2023-03-05T09:28:13.841Z,39.74
2023-03-05T09:30:40.515Z,40.84
2023-03-05T09:33:07.240Z,41.11
2023-03-05T09:35:37.224Z,40.35
2023-03-05T09:38:05.680Z,40.50
2023-03-05T09:40:47.354Z,41.24
2023-03-05T09:43:26.989Z,40.94
2023-03-05T09:46:11.714Z,40.09
2023-03-05T09:48:52.269Z,41.71
2023-03-05T09:51:28.143Z,40.13
2023-03-05T09:54:02.818Z,41.11
2023-03-05T09:56:41.278Z,39.62
2023-03-05T09:59:32.707Z,40.61
2023-03-05T10:02:17.403Z,40.40
2023-03-05T10:05:04.810Z,40.55
2023-03-05T10:07:32.673Z,41.38
2023-03-05T10:10:08.808Z,40.49
2023-03-05T10:12:38.521Z,40.25
2023-03-05T10:15:15.943Z,43.40
2023-03-05T10:18:06.544Z,40.72
2023-03-05T10:20:56.110Z,39.77
2023-03-05T10:23:42.372Z,40.78
2023-03-05T10:26:45.363Z,39.95
2023-03-05T10:29:29.574Z,39.02
2023-03-05T10:32:19.565Z,39.16
2023-03-05T10:34:55.579Z,38.54
2023-03-05T10:37:22.126Z,38.93
2023-03-05T10:39:51.777Z,38.55
2023-03-05T10:42:50.949Z,37.81
2023-03-05T10:45:23.111Z,37.22
2023-03-05T10:48:16.570Z,37.84
2023-03-05T10:50:46.775Z,37.25
2023-03-05T10:53:26.921Z,37.20
2023-03-05T10:55:53.596Z,36.05
2023-03-05T10:58:20.435Z,36.12
2023-03-05T11:01:10.211Z,36.28
2023-03-05T11:03:59.449Z,36.98
2023-03-05T11:06:41.902Z,37.28
2023-03-05T11:09:23.638Z,37.80
2023-03-05T11:12:15.655Z,36.80
2023-03-05T11:14:44.796Z,36.32
2023-03-05T11:17:40.632Z,37.31
2023-03-05T11:20:28.622Z,38.48
2023-03-05T11:23:14.404Z,38.07
2023-03-05T11:25:57.158Z,37.86
2023-03-05T11:28:33.664Z,37.86
2023-03-05T11:31:05.098Z,36.85
2023-03-05T11:33:31.897Z,38.69
2023-03-05T11:36:25.648Z,38.43
2023-03-05T11:38:54.564Z,38.11
2023-03-05T11:41:25.858Z,38.82
2023-03-05T11:43:53.183Z,37.45
2023-03-05T11:46:20.216Z,38.09
2023-03-05T11:48:47.023Z,37.68
2023-03-05T11:51:31.668Z,38.80
2023-03-05T11:54:01.145Z,39.07
2023-03-05T11:56:30.201Z,38.98
2023-03-05T11:59:15.428Z,39.10
2023-03-05T12:01:51.342Z,38.96
2023-03-05T12:04:19.046Z,38.60
2023-03-05T12:07:00.171Z,38.74
2023-03-05T12:09:34.267Z,38.68
2023-03-05T12:12:31.951Z,40.03
2023-03-05T12:15:05.352Z,39.09
2023-03-05T12:17:35.505Z,38.92
2023-03-05T12:20:15.893Z,39.47
2023-03-05T12:22:43.241Z,38.97
2023-03-05T12:25:32.064Z,39.98
2023-03-05T12:27:58.866Z,40.05
2023-03-05T12:30:45.973Z,40.24
2023-03-05T12:33:37.284Z,39.92
2023-03-05T12:36:22.519Z,39.83
2023-03-05T12:38:52.905Z,40.31
2023-03-05T12:41:22.621Z,40.36
2023-03-05T12:44:09.118Z,39.79
2023-03-05T12:46:39.716Z,40.85
2023-03-05T12:49:21.588Z,41.86
2023-03-05T12:51:49.192Z,39.10
2023-03-05T12:54:23.147Z,40.01
2023-03-05T12:56:49.833Z,40.72
2023-03-05T12:59:17.217Z,40.42
2023-03-05T13:01:50.845Z,40.56
2023-03-05T13:04:21.546Z,41.16
2023-03-05T13:06:49.779Z,40.64
2023-03-05T13:09:23.926Z,40.30
2023-03-05T13:11:52.005Z,41.21
2023-03-05T13:14:29.218Z,40.17
2023-03-05T13:16:56.005Z,40.94
2023-03-05T13:19:22.777Z,41.33
2023-03-05T13:22:03.151Z,41.69
2023-03-05T13:24:29.843Z,41.31
2023-03-05T13:26:56.551Z,41.87
2023-03-05T13:29:24.990Z,42.23
2023-03-05T13:31:55.961Z,41.99
2023-03-05T13:34:40.949Z,42.69
2023-03-05T13:37:20.282Z,42.39
2023-03-05T13:39:51.968Z,42.07
2023-03-05T13:42:21.528Z,42.95
2023-03-05T13:44:59.153Z,42.69
2023-03-05T13:47:28.743Z,44.12
2023-03-05T13:49:59.359Z,42.43
2023-03-05T13:52:31.020Z,41.63
2023-03-05T13:54:59.651Z,43.10
2023-03-05T13:57:43.293Z,43.08
2023-03-05T14:00:37.039Z,42.92
2023-03-05T14:03:21.127Z,43.25
2023-03-05T14:05:47.952Z,42.63
2023-03-05T14:08:24.256Z,42.58
2023-03-05T14:10:51.484Z,42.11
2023-03-05T14:13:20.244Z,42.22
2023-03-05T14:16:10.405Z,41.64
2023-03-05T14:18:37.197Z,42.85
2023-03-05T14:21:11.255Z,42.60
2023-03-05T14:23:43.837Z,41.15
2023-03-05T14:26:23.482Z,40.11
2023-03-05T14:28:56.158Z,42.51
2023-03-05T14:31:22.846Z,41.32
2023-03-05T14:33:51.310Z,40.82
2023-03-05T14:36:24.771Z,40.60
2023-03-05T14:38:52.644Z,40.95
2023-03-05T14:41:32.367Z,40.95
2023-03-05T14:43:59.944Z,40.56
2023-03-05T14:46:27.653Z,39.96
2023-03-05T14:48:55.224Z,41.68
2023-03-05T14:51:21.967Z,40.24
2023-03-05T14:53:49.417Z,40.12
2023-03-05T14:56:27.059Z,40.14
2023-03-05T14:58:54.636Z,40.61
2023-03-05T15:01:22.266Z,39.36
2023-03-05T15:03:49.821Z,38.55
2023-03-05T15:06:36.297Z,39.23
2023-03-05T15:09:05.109Z,39.49
2023-03-05T15:11:33.711Z,39.72
2023-03-05T15:14:01.326Z,39.74
2023-03-05T15:16:28.995Z,41.34
2023-03-05T15:18:56.514Z,39.92
2023-03-05T15:21:25.136Z,39.48
2023-03-05T15:23:53.743Z,39.90
2023-03-05T15:26:21.310Z,39.61
2023-03-05T15:28:48.932Z,39.99
2023-03-05T15:31:16.554Z,40.06
2023-03-05T15:33:44.126Z,39.52
2023-03-05T15:36:11.718Z,37.16
2023-03-05T15:38:41.345Z,37.09
2023-03-05T15:41:08.940Z,35.95
2023-03-05T15:43:50.702Z,36.05
2023-03-05T15:46:20.312Z,35.75
2023-03-05T15:48:48.025Z,35.15
2023-03-05T15:51:16.965Z,36.37
2023-03-05T15:53:44.433Z,36.13
2023-03-05T15:56:19.042Z,38.62
2023-03-05T15:58:46.633Z,38.52
2023-03-05T16:01:13.981Z,37.31
2023-03-05T16:03:43.727Z,37.03
2023-03-05T16:06:11.435Z,35.23
2023-03-05T16:08:38.150Z,36.51
2023-03-05T16:11:05.059Z,36.66
2023-03-05T16:13:32.249Z,36.95
2023-03-05T16:16:01.190Z,35.91
2023-03-05T16:18:29.458Z,36.81
2023-03-05T16:20:57.063Z,36.30
2023-03-05T16:23:24.667Z,36.16
2023-03-05T16:25:53.319Z,36.17
2023-03-05T16:28:20.913Z,38.36
2023-03-05T16:30:56.528Z,37.58
2023-03-05T16:33:25.144Z,35.88
2023-03-05T16:36:12.867Z,38.11
2023-03-05T16:38:40.442Z,36.98
2023-03-05T16:41:08.970Z,37.30
2023-03-05T16:43:36.641Z,38.12
2023-03-05T16:46:04.283Z,38.23
2023-03-05T16:48:31.102Z,38.15
2023-03-05T16:50:58.511Z,39.09
2023-03-05T16:53:26.123Z,39.41
2023-03-05T16:55:54.803Z,39.36
2023-03-05T16:58:22.182Z,38.82
2023-03-05T17:00:50.091Z,40.38
2023-03-05T17:03:16.828Z,39.53
2023-03-05T17:05:43.611Z,40.27
2023-03-05T17:08:10.331Z,40.02
2023-03-05T17:10:38.643Z,41.44
2023-03-05T17:13:06.145Z,39.79
2023-03-05T17:15:34.679Z,39.12
2023-03-05T17:18:03.298Z,40.38
2023-03-05T17:20:30.905Z,40.50
2023-03-05T17:22:58.482Z,39.78
2023-03-05T17:25:27.124Z,39.90
2023-03-05T17:27:54.706Z,40.17
2023-03-05T17:30:22.348Z,41.07
2023-03-05T17:32:52.684Z,41.22
2023-03-05T17:35:21.609Z,41.62
2023-03-05T17:37:50.178Z,41.26
2023-03-05T17:40:18.759Z,43.50
2023-03-05T17:42:48.073Z,40.59
2023-03-05T17:45:15.002Z,41.77
2023-03-05T17:47:42.613Z,41.22
2023-03-05T17:50:11.196Z,42.75
2023-03-05T17:52:39.795Z,40.78
2023-03-05T17:55:10.726Z,42.07
2023-03-05T17:57:39.086Z,41.86
2023-03-05T18:00:07.625Z,42.43
2023-03-05T18:02:35.197Z,44.27
2023-03-05T18:05:04.257Z,45.45
2023-03-05T18:07:33.411Z,44.72
2023-03-05T18:10:02.012Z,45.32
2023-03-05T18:12:32.361Z,45.03
2023-03-05T18:15:00.234Z,45.30
2023-03-05T18:17:27.796Z,44.09
2023-03-05T18:19:55.420Z,45.20
2023-03-05T18:22:24.081Z,43.61
2023-03-05T18:24:52.626Z,43.76
2023-03-05T18:27:20.211Z,42.52
2023-03-05T18:29:48.821Z,44.25
2023-03-05T18:32:17.505Z,42.76
2023-03-05T18:34:46.132Z,43.15
2023-03-05T18:37:12.918Z,42.37
2023-03-05T18:39:40.285Z,41.93
2023-03-05T18:42:07.932Z,47.09
2023-03-05T18:44:35.590Z,45.17
2023-03-05T18:47:02.337Z,42.29
2023-03-05T18:49:29.051Z,44.22
2023-03-05T18:51:55.708Z,44.21
2023-03-05T18:54:22.387Z,44.80
2023-03-05T18:56:49.719Z,44.97
2023-03-05T18:59:16.415Z,44.52
2023-03-05T19:01:43.140Z,46.32
2023-03-05T19:04:10.283Z,47.98
2023-03-05T19:06:37.012Z,47.60
2023-03-05T19:09:44.610Z,47.30
2023-03-05T19:12:11.312Z,47.37
2023-03-05T19:14:38.057Z,43.88
2023-03-05T19:17:04.735Z,43.47
2023-03-05T19:19:31.427Z,44.21
2023-03-05T19:21:58.199Z,44.90
2023-03-05T19:24:25.905Z,44.60
2023-03-05T19:26:52.563Z,43.42
2023-03-05T19:29:19.534Z,41.88
2023-03-05T19:31:47.124Z,41.71
2023-03-05T19:34:14.751Z,41.86
2023-03-05T19:36:41.429Z,41.59
2023-03-05T19:39:08.135Z,43.93
2023-03-05T19:41:34.893Z,41.93
2023-03-05T19:44:02.146Z,41.09
2023-03-05T19:46:29.823Z,41.93
2023-03-05T19:48:56.598Z,41.26
2023-03-05T19:51:24.319Z,42.41
2023-03-05T19:53:50.947Z,41.40
2023-03-05T19:56:17.752Z,41.73
2023-03-05T19:58:44.697Z,39.78
2023-03-05T20:01:12.566Z,40.36
2023-03-05T20:03:40.270Z,39.13
2023-03-05T20:06:08.884Z,39.91
2023-03-05T20:08:36.456Z,39.30
2023-03-05T20:11:03.561Z,38.91
2023-03-05T20:13:30.594Z,38.39
2023-03-05T20:15:57.416Z,39.63
2023-03-05T20:18:24.392Z,41.14
2023-03-05T20:20:55.104Z,40.37
2023-03-05T20:23:22.119Z,39.70
2023-03-05T20:25:49.046Z,40.64
2023-03-05T20:28:16.036Z,40.03
2023-03-05T20:30:42.762Z,39.99
2023-03-05T20:33:10.429Z,39.85
2023-03-05T20:35:37.350Z,39.74
2023-03-05T20:38:26.187Z,40.34
2023-03-05T20:40:54.649Z,38.80
2023-03-05T20:43:21.935Z,38.21
2023-03-05T20:45:48.647Z,37.87
2023-03-05T20:48:15.484Z,38.09
2023-03-05T20:50:42.208Z,37.73
2023-03-05T20:53:08.910Z,38.09
2023-03-05T20:55:35.609Z,40.94
2023-03-05T20:58:02.322Z,39.18
2023-03-05T21:00:29.050Z,37.94
2023-03-05T21:02:55.730Z,37.36
2023-03-05T21:05:25.380Z,41.19
2023-03-05T21:07:52.034Z,40.73
2023-03-05T21:10:19.556Z,38.78
2023-03-05T21:12:47.362Z,38.70
2023-03-05T21:15:15.878Z,39.74
2023-03-05T21:17:42.566Z,39.65
2023-03-05T21:20:11.835Z,40.34
2023-03-05T21:22:38.514Z,39.97
2023-03-05T21:25:23.469Z,40.12
2023-03-05T21:27:51.729Z,40.83
2023-03-05T21:30:18.669Z,41.11
2023-03-05T21:32:45.484Z,40.20
2023-03-05T21:35:16.619Z,38.64
2023-03-05T21:37:43.337Z,38.80
2023-03-05T21:40:11.977Z,39.84
2023-03-05T21:42:38.800Z,40.13
2023-03-05T21:45:06.410Z,39.93
2023-03-05T21:47:33.530Z,39.62
2023-03-05T21:50:00.437Z,39.13
2023-03-05T21:52:27.110Z,38.51
2023-03-05T21:54:54.033Z,39.54
2023-03-05T21:57:22.386Z,38.20
2023-03-05T21:59:49.026Z,37.83
2023-03-05T22:02:17.221Z,38.46
2023-03-05T22:04:44.214Z,38.04
2023-03-05T22:07:10.877Z,39.10
2023-03-05T22:09:37.544Z,39.18
2023-03-05T22:12:37.607Z,38.92
2023-03-05T22:15:04.561Z,39.08
2023-03-05T22:17:31.202Z,37.92
2023-03-05T22:19:57.848Z,39.41
2023-03-05T22:22:24.502Z,38.79
2023-03-05T22:24:51.184Z,37.10
2023-03-05T22:27:17.819Z,38.45
2023-03-05T22:29:44.472Z,39.20
2023-03-05T22:32:11.211Z,38.52
2023-03-05T22:34:37.882Z,38.33
2023-03-05T22:37:04.615Z,39.51
2023-03-05T22:39:31.276Z,39.85
2023-03-05T22:41:57.928Z,40.37
2023-03-05T22:44:25.163Z,39.03
2023-03-05T22:46:51.886Z,38.89
2023-03-05T22:49:18.532Z,39.66
2023-03-05T22:51:45.206Z,39.12
2023-03-05T22:54:11.845Z,37.90
2023-03-05T22:56:38.604Z,38.81
2023-03-05T22:59:05.254Z,40.34
2023-03-05T23:01:31.906Z,39.30
2023-03-05T23:04:38.636Z,41.31
2023-03-05T23:07:05.381Z,39.63
2023-03-05T23:09:32.030Z,40.14
2023-03-05T23:11:58.672Z,41.70
2023-03-05T23:14:25.334Z,40.38
2023-03-05T23:16:51.974Z,41.49
2023-03-05T23:19:18.641Z,39.84
2023-03-05T23:21:45.309Z,39.69
2023-03-05T23:24:11.946Z,39.05
2023-03-05T23:26:38.606Z,39.03
2023-03-05T23:29:05.235Z,39.31
2023-03-05T23:31:31.956Z,39.24
2023-03-05T23:33:58.628Z,38.46
2023-03-05T23:36:25.480Z,37.96
2023-03-05T23:38:52.131Z,40.48
2023-03-05T23:41:18.792Z,40.27
2023-03-05T23:43:45.437Z,39.09
2023-03-05T23:46:12.126Z,38.50
2023-03-05T23:48:38.808Z,39.65
2023-03-05T23:51:09.339Z,38.53
2023-03-05T23:53:36.154Z,39.58
2023-03-05T23:56:07.470Z,39.73
2023-03-05T23:58:35.503Z,39.40
